Etusivu
METAR-TAF:

METAR-TAF

Lentoasemat :

In Aménas, Algeria

Leveyspiiri: 28-03N, Pituuspiiri: 009-38E, korkeus merenpinnasta: 562 m

Tämänhetkinen sää

Tämä raportti tehtiin 55 minuuttia sitten, kello 21.00 UTC
Tuuli 7 kn koillisesta, vaihdellen pohjoisen ja idän/koillisen välillä
Lämpötila 21°C
Kosteus 20%
Ilmanpaine 1020 hPa
Näkyvyys 10 km tai enemmän
ei pilviä alle 1500 m:ssä eikä cumulonimbus-pilviä

METAR: DAUZ 082100Z 04007KT 010V070 CAVOK 21/M03 Q1020

Aika: 22:55 (21:55 UTC)

Sääennuste

Tämä raportti tehtiin 4 tuntia ja 55 minuuttia sitten, kello 17.00 UTC
Ennuste voimassa 08. päivästä klo 18 UTC - 09. päivään klo 18 UTC
Tuuli 10 kn idästä
Näkyvyys 10 km tai enemmän
Muutamia pilviä 4600 ft:n korkeudessa
Hajanaisia pilviä 10000 ft:n korkeudessa

TAF: DAUZ 081700Z 0818/0918 10010KT 9999 FEW046 SCT100

Säähavainnot ja -ennusteet yli 4000 lentoasemalta (METAR- ja TAF-raportit).

Käytössä olevat sääasemat on merkitty karttaan keltaisilla ja punaisilla pisteillä.

Aseta hiiri pisteen päälle nähdäksesi sääaseman nimen.

Klikkaa sitten nähdäksesi säähavainnot ja -ennusteet.

Kartan vaihtaminen: klikkaa mustalla rastilla varustettuja vihreitä pisteitä, niin voit zoomata sisään; viivalla varustettua vihreää pistettä, niin voit zoomata ulos tai vihreitä nuolia, niin pääset viereisille kartoille.


METAR-TAF: